Silvero — SDAK — position and weather

sailwx.info

Track history (hours):
 
Tides and Currents Weather Stations Pressure Air Temp Water Temp Dewpoint Dewpoint Depression Visibility Wind Speed Wind Dir Waves Ship Positions

Silvero

Last reported at 2016-Aug-24 11:18 UTC. Time now 2016-Aug-24 12:01 UTC.
Position N 59°24' E 018°21'.

Length 22 m.

Type: Passenger vessel. MMSI: 265568520.

Date/timePositionNaut miles runAvg speedWind from/ knotsBaromVisibWave heightAir tempDewpointWater temp
2016-Aug-24 11:18N 59°24' E 018°21'0 0.0
2016-Aug-24 10:06N 59°24' E 018°21'0 0.8
2016-Aug-24 09:33N 59°24' E 018°22'0 0.3
2016-Aug-24 08:33N 59°24' E 018°22'1 1.3
2016-Aug-24 07:32N 59°23' E 018°24'0 0.2
2016-Aug-24 06:11N 59°23' E 018°24'1 0.6
2016-Aug-24 04:09N 59°24' E 018°22'0 0.0
2016-Aug-23 13:27N 59°24' E 018°22'0 0.1
2016-Aug-23 11:15N 59°24' E 018°21'2 1.9
2016-Aug-23 10:16N 59°23' E 018°25'1 0.2
2016-Aug-23 07:29N 59°23' E 018°26'2 2.4
2016-Aug-23 06:30N 59°24' E 018°21'0 0.0
2016-Aug-23 05:31N 59°24' E 018°21'0 0.0
2016-Aug-23 04:09N 59°24' E 018°21'0 0.0
2016-Aug-22 14:25N 59°24' E 018°21'1 0.9
2016-Aug-22 13:07N 59°24' E 018°23'1 0.3
2016-Aug-22 08:32N 59°24' E 018°21'2 1.6
2016-Aug-22 07:34N 59°23' E 018°24'1 1.0
2016-Aug-22 06:33N 59°24' E 018°22'1 0.6
2016-Aug-22 05:32N 59°24' E 018°21'1 0.8
2016-Aug-22 04:30N 59°25' E 018°22'1 0.8
2016-Aug-22 03:33N 59°24' E 018°21'0 0.0
2016-Aug-22 02:33N 59°24' E 018°21'0 0.0
2016-Aug-22 01:33N 59°24' E 018°21'0 0.0
2016-Aug-22 00:33N 59°24' E 018°21'0 0.0
2016-Aug-21 23:33N 59°24' E 018°21'0 0.0
2016-Aug-21 22:33N 59°24' E 018°21'0 0.0
2016-Aug-21 20:12N 59°24' E 018°21'3 1.2
2016-Aug-21 17:23N 59°22' E 018°26'1 0.6
2016-Aug-21 15:29N 59°23' E 018°26'1 1.3
2016-Aug-21 14:25N 59°23' E 018°24'2 0.3
2016-Aug-21 07:30N 59°22' E 018°25'2 0.1
2016-Aug-20 13:26N 59°23' E 018°24'2 1.4
2016-Aug-20 12:06N 59°24' E 018°21'0 0.0
2016-Aug-20 11:32N 59°24' E 018°21'1 0.6
2016-Aug-20 10:27N 59°25' E 018°22'1 0.5
2016-Aug-20 09:07N 59°24' E 018°21'4 0.2
2016-Aug-19 14:33N 59°22' E 018°15'3 0.3
2016-Aug-19 05:33N 59°22' E 018°21'  
Track history (hours):
 
Tides and Currents Weather Stations Pressure Air Temp Water Temp Dewpoint Dewpoint Depression Visibility Wind Speed Wind Dir Waves Ship Positions

Silvero

Last reported at 2016-Aug-24 11:18 UTC. Time now 2016-Aug-24 12:01 UTC.
Position N 59°24' E 018°21'.

Length 22 m.

Type: Passenger vessel. MMSI: 265568520.

Date/timePositionNaut miles runAvg speedWind from/ knotsBaromVisibWave heightAir tempDewpointWater temp
2016-Aug-24 11:18N 59°24' E 018°21'0 0.0
2016-Aug-24 10:06N 59°24' E 018°21'0 0.8
2016-Aug-24 09:33N 59°24' E 018°22'0 0.3
2016-Aug-24 08:33N 59°24' E 018°22'1 1.3
2016-Aug-24 07:32N 59°23' E 018°24'0 0.2
2016-Aug-24 06:11N 59°23' E 018°24'1 0.6
2016-Aug-24 04:09N 59°24' E 018°22'0 0.0
2016-Aug-23 13:27N 59°24' E 018°22'0 0.1
2016-Aug-23 11:15N 59°24' E 018°21'2 1.9
2016-Aug-23 10:16N 59°23' E 018°25'1 0.2
2016-Aug-23 07:29N 59°23' E 018°26'2 2.4
2016-Aug-23 06:30N 59°24' E 018°21'0 0.0
2016-Aug-23 05:31N 59°24' E 018°21'0 0.0
2016-Aug-23 04:09N 59°24' E 018°21'0 0.0
2016-Aug-22 14:25N 59°24' E 018°21'1 0.9
2016-Aug-22 13:07N 59°24' E 018°23'1 0.3
2016-Aug-22 08:32N 59°24' E 018°21'2 1.6
2016-Aug-22 07:34N 59°23' E 018°24'1 1.0
2016-Aug-22 06:33N 59°24' E 018°22'1 0.6
2016-Aug-22 05:32N 59°24' E 018°21'1 0.8
2016-Aug-22 04:30N 59°25' E 018°22'1 0.8
2016-Aug-22 03:33N 59°24' E 018°21'0 0.0
2016-Aug-22 02:33N 59°24' E 018°21'0 0.0
2016-Aug-22 01:33N 59°24' E 018°21'0 0.0
2016-Aug-22 00:33N 59°24' E 018°21'0 0.0
2016-Aug-21 23:33N 59°24' E 018°21'0 0.0
2016-Aug-21 22:33N 59°24' E 018°21'0 0.0
2016-Aug-21 20:12N 59°24' E 018°21'3 1.2
2016-Aug-21 17:23N 59°22' E 018°26'1 0.6
2016-Aug-21 15:29N 59°23' E 018°26'1 1.3
2016-Aug-21 14:25N 59°23' E 018°24'2 0.3
2016-Aug-21 07:30N 59°22' E 018°25'2 0.1
2016-Aug-20 13:26N 59°23' E 018°24'2 1.4
2016-Aug-20 12:06N 59°24' E 018°21'0 0.0
2016-Aug-20 11:32N 59°24' E 018°21'1 0.6
2016-Aug-20 10:27N 59°25' E 018°22'1 0.5
2016-Aug-20 09:07N 59°24' E 018°21'4 0.2
2016-Aug-19 14:33N 59°22' E 018°15'3 0.3
2016-Aug-19 05:33N 59°22' E 018°21'  

Dump ship's entire track history